sensor_id;sensor_type;location;lat;lon;timestamp;temperature;humidity
59572;DHT22;59406;45.602;11.904;2023-02-26T00:00:35;11.10;89.50
59572;DHT22;59406;45.602;11.904;2023-02-26T00:03:01;11.10;89.30
59572;DHT22;59406;45.602;11.904;2023-02-26T00:05:26;11.00;89.40
59572;DHT22;59406;45.602;11.904;2023-02-26T00:07:52;11.00;89.60
59572;DHT22;59406;45.602;11.904;2023-02-26T00:10:18;11.10;89.60
59572;DHT22;59406;45.602;11.904;2023-02-26T00:12:44;11.00;89.50
59572;DHT22;59406;45.602;11.904;2023-02-26T00:15:11;11.10;89.40
59572;DHT22;59406;45.602;11.904;2023-02-26T00:18:05;10.90;89.50
59572;DHT22;59406;45.602;11.904;2023-02-26T00:20:32;10.90;89.90
59572;DHT22;59406;45.602;11.904;2023-02-26T00:22:58;10.90;90.10
59572;DHT22;59406;45.602;11.904;2023-02-26T00:25:24;10.70;90.30
59572;DHT22;59406;45.602;11.904;2023-02-26T00:27:50;10.60;90.10
59572;DHT22;59406;45.602;11.904;2023-02-26T00:30:17;10.50;90.20
59572;DHT22;59406;45.602;11.904;2023-02-26T00:32:43;10.40;90.50
59572;DHT22;59406;45.602;11.904;2023-02-26T00:35:13;10.30;90.30
59572;DHT22;59406;45.602;11.904;2023-02-26T00:38:02;10.40;90.50
59572;DHT22;59406;45.602;11.904;2023-02-26T00:40:45;10.30;90.80
59572;DHT22;59406;45.602;11.904;2023-02-26T00:43:22;10.20;90.50
59572;DHT22;59406;45.602;11.904;2023-02-26T00:46:02;10.30;90.90
59572;DHT22;59406;45.602;11.904;2023-02-26T00:51:51;10.10;91.50
59572;DHT22;59406;45.602;11.904;2023-02-26T00:54:29;10.10;92.00
59572;DHT22;59406;45.602;11.904;2023-02-26T00:56:57;10.00;94.50
59572;DHT22;59406;45.602;11.904;2023-02-26T00:59:24;10.10;95.20
59572;DHT22;59406;45.602;11.904;2023-02-26T01:01:50;10.20;96.50
59572;DHT22;59406;45.602;11.904;2023-02-26T01:04:21;10.20;96.80
59572;DHT22;59406;45.602;11.904;2023-02-26T01:06:50;10.40;96.80
59572;DHT22;59406;45.602;11.904;2023-02-26T01:09:26;10.30;96.90
59572;DHT22;59406;45.602;11.904;2023-02-26T01:11:55;10.10;92.00
59572;DHT22;59406;45.602;11.904;2023-02-26T01:14:22;9.70;91.30
59572;DHT22;59406;45.602;11.904;2023-02-26T01:19:53;9.70;90.60
59572;DHT22;59406;45.602;11.904;2023-02-26T01:27:39;9.50;86.70
59572;DHT22;59406;45.602;11.904;2023-02-26T01:30:06;9.40;85.90
59572;DHT22;59406;45.602;11.904;2023-02-26T01:32:42;9.40;85.90
59572;DHT22;59406;45.602;11.904;2023-02-26T01:41:00;9.50;83.80
59572;DHT22;59406;45.602;11.904;2023-02-26T01:43:34;9.50;83.20
59572;DHT22;59406;45.602;11.904;2023-02-26T01:46:48;9.40;82.60
59572;DHT22;59406;45.602;11.904;2023-02-26T01:49:17;9.40;83.00
59572;DHT22;59406;45.602;11.904;2023-02-26T01:51:52;9.20;83.00
59572;DHT22;59406;45.602;11.904;2023-02-26T01:54:21;9.30;83.20
59572;DHT22;59406;45.602;11.904;2023-02-26T01:57:36;9.20;83.20
59572;DHT22;59406;45.602;11.904;2023-02-26T01:59:46;9.10;83.10
59572;DHT22;59406;45.602;11.904;2023-02-26T02:02:16;9.20;83.20
59572;DHT22;59406;45.602;11.904;2023-02-26T02:04:44;9.10;83.20
59572;DHT22;59406;45.602;11.904;2023-02-26T02:07:11;9.00;83.30
59572;DHT22;59406;45.602;11.904;2023-02-26T02:09:37;9.10;82.20
59572;DHT22;59406;45.602;11.904;2023-02-26T02:15:16;9.20;82.00
59572;DHT22;59406;45.602;11.904;2023-02-26T02:18:20;9.30;82.30
59572;DHT22;59406;45.602;11.904;2023-02-26T02:23:58;9.20;81.90
59572;DHT22;59406;45.602;11.904;2023-02-26T02:26:48;9.30;81.70
59572;DHT22;59406;45.602;11.904;2023-02-26T02:37:04;9.10;82.00
59572;DHT22;59406;45.602;11.904;2023-02-26T02:39:41;9.10;81.60
59572;DHT22;59406;45.602;11.904;2023-02-26T02:45:02;9.10;81.60
59572;DHT22;59406;45.602;11.904;2023-02-26T02:47:32;9.00;81.50
59572;DHT22;59406;45.602;11.904;2023-02-26T02:50:04;9.10;81.40
59572;DHT22;59406;45.602;11.904;2023-02-26T02:53:03;8.90;81.80
59572;DHT22;59406;45.602;11.904;2023-02-26T02:55:37;9.00;82.60
59572;DHT22;59406;45.602;11.904;2023-02-26T02:58:10;8.90;82.80
59572;DHT22;59406;45.602;11.904;2023-02-26T03:00:42;8.80;82.10
59572;DHT22;59406;45.602;11.904;2023-02-26T03:06:10;8.70;82.00
59572;DHT22;59406;45.602;11.904;2023-02-26T03:08:39;8.80;82.10
59572;DHT22;59406;45.602;11.904;2023-02-26T03:11:08;8.80;81.90
59572;DHT22;59406;45.602;11.904;2023-02-26T03:13:35;8.70;81.60
59572;DHT22;59406;45.602;11.904;2023-02-26T03:19:14;8.90;81.60
59572;DHT22;59406;45.602;11.904;2023-02-26T03:22:02;8.70;81.80
59572;DHT22;59406;45.602;11.904;2023-02-26T03:29:49;8.70;81.80
59572;DHT22;59406;45.602;11.904;2023-02-26T03:35:48;8.80;81.80
59572;DHT22;59406;45.602;11.904;2023-02-26T03:38:16;8.70;81.30
59572;DHT22;59406;45.602;11.904;2023-02-26T03:40:53;8.70;81.50
59572;DHT22;59406;45.602;11.904;2023-02-26T03:43:33;8.70;81.60
59572;DHT22;59406;45.602;11.904;2023-02-26T03:46:04;8.70;81.60
59572;DHT22;59406;45.602;11.904;2023-02-26T03:48:33;8.40;81.70
59572;DHT22;59406;45.602;11.904;2023-02-26T03:51:04;8.60;81.50
59572;DHT22;59406;45.602;11.904;2023-02-26T03:53:52;8.60;82.00
59572;DHT22;59406;45.602;11.904;2023-02-26T03:56:29;8.60;82.00
59572;DHT22;59406;45.602;11.904;2023-02-26T03:58:58;8.50;82.00
59572;DHT22;59406;45.602;11.904;2023-02-26T04:01:29;8.40;82.80
59572;DHT22;59406;45.602;11.904;2023-02-26T04:04:04;8.40;82.70
59572;DHT22;59406;45.602;11.904;2023-02-26T04:06:31;8.50;83.10
59572;DHT22;59406;45.602;11.904;2023-02-26T04:09:00;8.50;83.30
59572;DHT22;59406;45.602;11.904;2023-02-26T04:11:26;8.50;83.70
59572;DHT22;59406;45.602;11.904;2023-02-26T04:13:54;8.50;83.60
59572;DHT22;59406;45.602;11.904;2023-02-26T04:16:19;8.20;83.30
59572;DHT22;59406;45.602;11.904;2023-02-26T04:18:46;8.20;83.50
59572;DHT22;59406;45.602;11.904;2023-02-26T04:21:18;8.10;83.00
59572;DHT22;59406;45.602;11.904;2023-02-26T04:23:45;8.00;83.60
59572;DHT22;59406;45.602;11.904;2023-02-26T04:26:10;7.80;83.50
59572;DHT22;59406;45.602;11.904;2023-02-26T04:28:38;8.00;83.60
59572;DHT22;59406;45.602;11.904;2023-02-26T04:31:05;7.80;83.30
59572;DHT22;59406;45.602;11.904;2023-02-26T04:33:31;7.80;83.70
59572;DHT22;59406;45.602;11.904;2023-02-26T04:35:59;7.80;83.90
59572;DHT22;59406;45.602;11.904;2023-02-26T04:38:25;7.80;83.60
59572;DHT22;59406;45.602;11.904;2023-02-26T04:40:51;7.80;83.80
59572;DHT22;59406;45.602;11.904;2023-02-26T04:43:17;7.70;83.50
59572;DHT22;59406;45.602;11.904;2023-02-26T04:45:47;7.70;84.20
59572;DHT22;59406;45.602;11.904;2023-02-26T04:48:13;7.40;84.50
59572;DHT22;59406;45.602;11.904;2023-02-26T04:50:39;7.40;84.30
59572;DHT22;59406;45.602;11.904;2023-02-26T04:53:06;7.40;84.00
59572;DHT22;59406;45.602;11.904;2023-02-26T04:55:33;7.50;83.80
59572;DHT22;59406;45.602;11.904;2023-02-26T04:57:59;7.60;83.80
59572;DHT22;59406;45.602;11.904;2023-02-26T05:00:25;7.60;83.80
59572;DHT22;59406;45.602;11.904;2023-02-26T05:02:51;7.60;83.50
59572;DHT22;59406;45.602;11.904;2023-02-26T05:05:17;7.70;83.50
59572;DHT22;59406;45.602;11.904;2023-02-26T05:07:43;7.50;83.00
59572;DHT22;59406;45.602;11.904;2023-02-26T05:10:09;7.70;83.50
59572;DHT22;59406;45.602;11.904;2023-02-26T05:12:36;7.70;83.50
59572;DHT22;59406;45.602;11.904;2023-02-26T05:15:02;7.60;83.40
59572;DHT22;59406;45.602;11.904;2023-02-26T05:17:28;7.60;83.40
59572;DHT22;59406;45.602;11.904;2023-02-26T05:19:54;7.70;82.90
59572;DHT22;59406;45.602;11.904;2023-02-26T05:22:20;7.50;83.10
59572;DHT22;59406;45.602;11.904;2023-02-26T05:24:46;7.60;83.30
59572;DHT22;59406;45.602;11.904;2023-02-26T05:27:12;7.60;82.90
59572;DHT22;59406;45.602;11.904;2023-02-26T05:29:38;7.40;83.10
59572;DHT22;59406;45.602;11.904;2023-02-26T05:32:05;7.60;83.20
59572;DHT22;59406;45.602;11.904;2023-02-26T05:34:31;7.70;83.20
59572;DHT22;59406;45.602;11.904;2023-02-26T05:36:57;7.70;82.80
59572;DHT22;59406;45.602;11.904;2023-02-26T05:39:23;7.70;83.20
59572;DHT22;59406;45.602;11.904;2023-02-26T05:41:49;7.80;82.80
59572;DHT22;59406;45.602;11.904;2023-02-26T05:44:17;7.70;83.00
59572;DHT22;59406;45.602;11.904;2023-02-26T05:46:43;7.60;82.70
59572;DHT22;59406;45.602;11.904;2023-02-26T05:49:09;7.50;82.80
59572;DHT22;59406;45.602;11.904;2023-02-26T05:51:35;7.50;83.00
59572;DHT22;59406;45.602;11.904;2023-02-26T05:54:01;7.60;83.60
59572;DHT22;59406;45.602;11.904;2023-02-26T05:56:27;7.60;83.30
59572;DHT22;59406;45.602;11.904;2023-02-26T05:58:53;7.60;83.30
59572;DHT22;59406;45.602;11.904;2023-02-26T06:01:18;7.50;82.90
59572;DHT22;59406;45.602;11.904;2023-02-26T06:03:44;7.50;82.60
59572;DHT22;59406;45.602;11.904;2023-02-26T06:06:11;7.30;82.30
59572;DHT22;59406;45.602;11.904;2023-02-26T06:08:39;7.60;82.40
59572;DHT22;59406;45.602;11.904;2023-02-26T06:11:05;7.80;82.50
59572;DHT22;59406;45.602;11.904;2023-02-26T06:13:30;7.70;82.30
59572;DHT22;59406;45.602;11.904;2023-02-26T06:15:56;7.60;82.40
59572;DHT22;59406;45.602;11.904;2023-02-26T06:18:22;7.50;82.40
59572;DHT22;59406;45.602;11.904;2023-02-26T06:20:48;7.60;82.40
59572;DHT22;59406;45.602;11.904;2023-02-26T06:23:14;7.60;82.10
59572;DHT22;59406;45.602;11.904;2023-02-26T06:25:41;7.70;82.20
59572;DHT22;59406;45.602;11.904;2023-02-26T06:28:07;7.70;81.60
59572;DHT22;59406;45.602;11.904;2023-02-26T06:30:33;7.70;81.70
59572;DHT22;59406;45.602;11.904;2023-02-26T06:32:59;7.70;82.00
59572;DHT22;59406;45.602;11.904;2023-02-26T06:35:25;7.70;81.50
59572;DHT22;59406;45.602;11.904;2023-02-26T06:37:53;7.60;81.00
59572;DHT22;59406;45.602;11.904;2023-02-26T06:40:18;7.70;81.20
59572;DHT22;59406;45.602;11.904;2023-02-26T06:42:44;7.70;80.30
59572;DHT22;59406;45.602;11.904;2023-02-26T06:45:10;7.80;80.30
59572;DHT22;59406;45.602;11.904;2023-02-26T06:47:36;7.70;80.00
59572;DHT22;59406;45.602;11.904;2023-02-26T06:50:02;8.00;80.00
59572;DHT22;59406;45.602;11.904;2023-02-26T06:52:29;8.00;79.30
59572;DHT22;59406;45.602;11.904;2023-02-26T06:54:55;7.90;78.90
59572;DHT22;59406;45.602;11.904;2023-02-26T06:57:21;8.00;78.90
59572;DHT22;59406;45.602;11.904;2023-02-26T06:59:47;8.00;79.00
59572;DHT22;59406;45.602;11.904;2023-02-26T07:02:16;8.10;77.70
59572;DHT22;59406;45.602;11.904;2023-02-26T07:04:42;8.00;77.70
59572;DHT22;59406;45.602;11.904;2023-02-26T07:07:08;8.30;76.60
59572;DHT22;59406;45.602;11.904;2023-02-26T07:09:34;8.40;74.90
59572;DHT22;59406;45.602;11.904;2023-02-26T07:12:00;8.40;74.80
59572;DHT22;59406;45.602;11.904;2023-02-26T07:14:26;8.60;74.50
59572;DHT22;59406;45.602;11.904;2023-02-26T07:16:52;8.70;74.60
59572;DHT22;59406;45.602;11.904;2023-02-26T07:19:18;8.50;74.70
59572;DHT22;59406;45.602;11.904;2023-02-26T07:21:44;8.60;73.90
59572;DHT22;59406;45.602;11.904;2023-02-26T07:24:10;8.70;74.50
59572;DHT22;59406;45.602;11.904;2023-02-26T07:26:36;8.40;74.40
59572;DHT22;59406;45.602;11.904;2023-02-26T07:29:02;8.60;74.50
59572;DHT22;59406;45.602;11.904;2023-02-26T07:31:28;8.60;74.90
59572;DHT22;59406;45.602;11.904;2023-02-26T07:33:53;8.70;75.10
59572;DHT22;59406;45.602;11.904;2023-02-26T07:36:19;8.50;75.20
59572;DHT22;59406;45.602;11.904;2023-02-26T07:38:45;8.80;74.80
59572;DHT22;59406;45.602;11.904;2023-02-26T07:41:11;8.70;74.80
59572;DHT22;59406;45.602;11.904;2023-02-26T07:43:37;8.80;74.30
59572;DHT22;59406;45.602;11.904;2023-02-26T07:46:03;8.90;73.90
59572;DHT22;59406;45.602;11.904;2023-02-26T07:48:29;8.90;74.60
59572;DHT22;59406;45.602;11.904;2023-02-26T07:50:55;8.80;74.80
59572;DHT22;59406;45.602;11.904;2023-02-26T07:53:21;8.80;74.10
59572;DHT22;59406;45.602;11.904;2023-02-26T07:55:47;8.80;73.80
59572;DHT22;59406;45.602;11.904;2023-02-26T07:58:14;8.70;74.20
59572;DHT22;59406;45.602;11.904;2023-02-26T08:00:39;9.00;74.40
59572;DHT22;59406;45.602;11.904;2023-02-26T08:03:05;8.80;73.50
59572;DHT22;59406;45.602;11.904;2023-02-26T08:05:31;9.10;73.70
59572;DHT22;59406;45.602;11.904;2023-02-26T08:07:57;9.10;73.20
59572;DHT22;59406;45.602;11.904;2023-02-26T08:10:23;9.30;73.70
59572;DHT22;59406;45.602;11.904;2023-02-26T08:12:49;9.10;73.70
59572;DHT22;59406;45.602;11.904;2023-02-26T08:15:15;9.10;73.50
59572;DHT22;59406;45.602;11.904;2023-02-26T08:17:41;9.30;73.50
59572;DHT22;59406;45.602;11.904;2023-02-26T08:20:08;9.20;73.30
59572;DHT22;59406;45.602;11.904;2023-02-26T08:22:34;9.30;72.70
59572;DHT22;59406;45.602;11.904;2023-02-26T08:25:00;9.30;72.70
59572;DHT22;59406;45.602;11.904;2023-02-26T08:27:26;9.30;72.40
59572;DHT22;59406;45.602;11.904;2023-02-26T08:29:51;9.50;72.40
59572;DHT22;59406;45.602;11.904;2023-02-26T08:32:18;9.20;71.40
59572;DHT22;59406;45.602;11.904;2023-02-26T08:34:45;9.30;71.60
59572;DHT22;59406;45.602;11.904;2023-02-26T08:37:11;9.40;72.30
59572;DHT22;59406;45.602;11.904;2023-02-26T08:39:38;9.50;71.80
59572;DHT22;59406;45.602;11.904;2023-02-26T08:42:05;9.40;71.10
59572;DHT22;59406;45.602;11.904;2023-02-26T08:44:32;9.50;72.00
59572;DHT22;59406;45.602;11.904;2023-02-26T08:46:58;9.60;70.70
59572;DHT22;59406;45.602;11.904;2023-02-26T08:49:24;9.50;70.80
59572;DHT22;59406;45.602;11.904;2023-02-26T08:51:50;9.50;70.60
59572;DHT22;59406;45.602;11.904;2023-02-26T08:54:16;9.50;70.00
59572;DHT22;59406;45.602;11.904;2023-02-26T08:56:42;9.70;70.30
59572;DHT22;59406;45.602;11.904;2023-02-26T08:59:08;9.70;69.00
59572;DHT22;59406;45.602;11.904;2023-02-26T09:01:36;9.70;69.90
59572;DHT22;59406;45.602;11.904;2023-02-26T09:04:02;9.80;69.40
59572;DHT22;59406;45.602;11.904;2023-02-26T09:06:28;9.70;68.50
59572;DHT22;59406;45.602;11.904;2023-02-26T09:08:54;9.80;69.20
59572;DHT22;59406;45.602;11.904;2023-02-26T09:11:20;9.90;68.80
59572;DHT22;59406;45.602;11.904;2023-02-26T09:13:46;9.90;68.50
59572;DHT22;59406;45.602;11.904;2023-02-26T09:16:12;10.00;68.90
59572;DHT22;59406;45.602;11.904;2023-02-26T09:18:38;10.00;69.10
59572;DHT22;59406;45.602;11.904;2023-02-26T09:21:04;10.10;68.10
59572;DHT22;59406;45.602;11.904;2023-02-26T09:23:30;10.10;67.70
59572;DHT22;59406;45.602;11.904;2023-02-26T09:25:56;10.10;67.10
59572;DHT22;59406;45.602;11.904;2023-02-26T09:28:24;10.00;67.30
59572;DHT22;59406;45.602;11.904;2023-02-26T09:30:52;10.10;67.90
59572;DHT22;59406;45.602;11.904;2023-02-26T09:33:18;10.10;67.50
59572;DHT22;59406;45.602;11.904;2023-02-26T09:35:47;10.10;67.50
59572;DHT22;59406;45.602;11.904;2023-02-26T09:38:14;9.90;67.00
59572;DHT22;59406;45.602;11.904;2023-02-26T09:40:47;10.00;66.50
59572;DHT22;59406;45.602;11.904;2023-02-26T09:43:53;10.10;67.00
59572;DHT22;59406;45.602;11.904;2023-02-26T09:49:06;10.00;67.10
59572;DHT22;59406;45.602;11.904;2023-02-26T09:51:35;10.10;66.50
59572;DHT22;59406;45.602;11.904;2023-02-26T09:54:18;10.00;66.40
59572;DHT22;59406;45.602;11.904;2023-02-26T09:56:46;10.10;67.00
59572;DHT22;59406;45.602;11.904;2023-02-26T09:59:13;9.90;67.10
59572;DHT22;59406;45.602;11.904;2023-02-26T10:01:51;10.00;68.70
59572;DHT22;59406;45.602;11.904;2023-02-26T10:05:16;10.10;68.80
59572;DHT22;59406;45.602;11.904;2023-02-26T10:10:44;9.80;68.40
59572;DHT22;59406;45.602;11.904;2023-02-26T10:13:03;9.70;68.20
59572;DHT22;59406;45.602;11.904;2023-02-26T10:15:36;9.90;68.80
59572;DHT22;59406;45.602;11.904;2023-02-26T10:18:12;9.90;68.50
59572;DHT22;59406;45.602;11.904;2023-02-26T10:23:44;9.90;68.50
59572;DHT22;59406;45.602;11.904;2023-02-26T10:26:17;10.00;69.00
59572;DHT22;59406;45.602;11.904;2023-02-26T10:28:59;9.80;68.30
59572;DHT22;59406;45.602;11.904;2023-02-26T10:40:12;10.00;69.70
59572;DHT22;59406;45.602;11.904;2023-02-26T10:50:30;9.90;70.50
59572;DHT22;59406;45.602;11.904;2023-02-26T10:52:56;10.10;70.90
59572;DHT22;59406;45.602;11.904;2023-02-26T11:00:37;10.10;70.50
59572;DHT22;59406;45.602;11.904;2023-02-26T11:03:05;10.20;70.60
59572;DHT22;59406;45.602;11.904;2023-02-26T11:05:33;10.20;70.30
59572;DHT22;59406;45.602;11.904;2023-02-26T11:08:09;9.90;70.10
59572;DHT22;59406;45.602;11.904;2023-02-26T11:10:54;10.00;70.50
59572;DHT22;59406;45.602;11.904;2023-02-26T11:13:23;10.30;70.90
59572;DHT22;59406;45.602;11.904;2023-02-26T11:15:52;10.10;69.90
59572;DHT22;59406;45.602;11.904;2023-02-26T11:18:26;10.00;69.70
59572;DHT22;59406;45.602;11.904;2023-02-26T11:20:55;10.00;70.10
59572;DHT22;59406;45.602;11.904;2023-02-26T11:23:26;9.90;69.60
59572;DHT22;59406;45.602;11.904;2023-02-26T11:26:14;9.80;69.40
59572;DHT22;59406;45.602;11.904;2023-02-26T11:28:44;9.80;69.60
59572;DHT22;59406;45.602;11.904;2023-02-26T11:31:13;9.80;69.70
59572;DHT22;59406;45.602;11.904;2023-02-26T11:33:44;9.80;69.30
59572;DHT22;59406;45.602;11.904;2023-02-26T11:36:15;9.90;69.80
59572;DHT22;59406;45.602;11.904;2023-02-26T11:38:51;10.10;70.40
59572;DHT22;59406;45.602;11.904;2023-02-26T11:41:17;10.00;69.30
59572;DHT22;59406;45.602;11.904;2023-02-26T11:44:04;10.10;70.30
59572;DHT22;59406;45.602;11.904;2023-02-26T11:46:38;10.10;69.20
59572;DHT22;59406;45.602;11.904;2023-02-26T11:49:10;9.90;69.30
59572;DHT22;59406;45.602;11.904;2023-02-26T11:51:42;10.10;69.80
59572;DHT22;59406;45.602;11.904;2023-02-26T11:54:30;10.20;69.40
59572;DHT22;59406;45.602;11.904;2023-02-26T11:57:05;10.10;68.80
59572;DHT22;59406;45.602;11.904;2023-02-26T11:59:33;10.20;69.40
59572;DHT22;59406;45.602;11.904;2023-02-26T12:02:19;10.10;69.10
59572;DHT22;59406;45.602;11.904;2023-02-26T12:04:50;10.20;68.90
59572;DHT22;59406;45.602;11.904;2023-02-26T12:07:17;10.20;68.80
59572;DHT22;59406;45.602;11.904;2023-02-26T12:09:44;10.10;69.80
59572;DHT22;59406;45.602;11.904;2023-02-26T12:12:42;10.00;69.30
59572;DHT22;59406;45.602;11.904;2023-02-26T12:15:32;10.20;69.70
59572;DHT22;59406;45.602;11.904;2023-02-26T12:26:49;9.80;69.90
59572;DHT22;59406;45.602;11.904;2023-02-26T12:32:28;9.80;69.50
59572;DHT22;59406;45.602;11.904;2023-02-26T12:36:06;9.80;69.90
59572;DHT22;59406;45.602;11.904;2023-02-26T12:44:37;9.70;69.50
59572;DHT22;59406;45.602;11.904;2023-02-26T12:55:33;9.70;69.60
59572;DHT22;59406;45.602;11.904;2023-02-26T12:58:14;9.90;69.10
59572;DHT22;59406;45.602;11.904;2023-02-26T13:12:23;9.90;69.10
59572;DHT22;59406;45.602;11.904;2023-02-26T13:14:57;9.80;68.90
59572;DHT22;59406;45.602;11.904;2023-02-26T13:20:10;9.70;68.70
59572;DHT22;59406;45.602;11.904;2023-02-26T13:30:59;9.90;69.60
59572;DHT22;59406;45.602;11.904;2023-02-26T13:33:29;9.90;69.00
59572;DHT22;59406;45.602;11.904;2023-02-26T13:35:56;10.00;69.20
59572;DHT22;59406;45.602;11.904;2023-02-26T13:41:26;9.90;69.40
59572;DHT22;59406;45.602;11.904;2023-02-26T13:46:36;9.70;68.70
59572;DHT22;59406;45.602;11.904;2023-02-26T13:51:34;9.80;69.20
59572;DHT22;59406;45.602;11.904;2023-02-26T13:54:28;9.70;69.10
59572;DHT22;59406;45.602;11.904;2023-02-26T13:57:04;9.90;69.10
59572;DHT22;59406;45.602;11.904;2023-02-26T13:59:47;10.00;69.40
59572;DHT22;59406;45.602;11.904;2023-02-26T14:04:52;9.80;69.20
59572;DHT22;59406;45.602;11.904;2023-02-26T14:07:48;9.80;69.10
59572;DHT22;59406;45.602;11.904;2023-02-26T14:13:18;9.70;68.60
59572;DHT22;59406;45.602;11.904;2023-02-26T14:16:23;9.60;68.90
59572;DHT22;59406;45.602;11.904;2023-02-26T14:18:53;9.70;68.40
59572;DHT22;59406;45.602;11.904;2023-02-26T14:24:02;9.50;68.50
59572;DHT22;59406;45.602;11.904;2023-02-26T14:26:35;9.80;68.40
59572;DHT22;59406;45.602;11.904;2023-02-26T14:34:35;10.10;68.70
59572;DHT22;59406;45.602;11.904;2023-02-26T14:37:05;10.00;68.70
59572;DHT22;59406;45.602;11.904;2023-02-26T14:42:04;10.10;68.30
59572;DHT22;59406;45.602;11.904;2023-02-26T14:44:41;10.20;68.90
59572;DHT22;59406;45.602;11.904;2023-02-26T14:47:08;10.00;68.20
59572;DHT22;59406;45.602;11.904;2023-02-26T14:49:37;10.00;68.90
59572;DHT22;59406;45.602;11.904;2023-02-26T14:54:48;9.90;68.50
59572;DHT22;59406;45.602;11.904;2023-02-26T14:59:59;9.80;69.00
59572;DHT22;59406;45.602;11.904;2023-02-26T15:05:38;9.60;69.00
59572;DHT22;59406;45.602;11.904;2023-02-26T15:08:20;9.60;68.70
59572;DHT22;59406;45.602;11.904;2023-02-26T15:10:59;9.50;68.80
59572;DHT22;59406;45.602;11.904;2023-02-26T15:17:22;9.30;68.40
59572;DHT22;59406;45.602;11.904;2023-02-26T15:22:56;9.20;69.00
59572;DHT22;59406;45.602;11.904;2023-02-26T15:25:28;9.10;68.80
59572;DHT22;59406;45.602;11.904;2023-02-26T15:27:55;9.20;68.90
59572;DHT22;59406;45.602;11.904;2023-02-26T15:30:22;9.00;69.00
59572;DHT22;59406;45.602;11.904;2023-02-26T15:32:54;9.00;68.90
59572;DHT22;59406;45.602;11.904;2023-02-26T15:35:21;9.10;69.10
59572;DHT22;59406;45.602;11.904;2023-02-26T15:37:53;8.90;68.30
59572;DHT22;59406;45.602;11.904;2023-02-26T15:40:21;8.90;68.60
59572;DHT22;59406;45.602;11.904;2023-02-26T15:42:54;8.80;68.80
59572;DHT22;59406;45.602;11.904;2023-02-26T15:45:26;8.70;68.90
59572;DHT22;59406;45.602;11.904;2023-02-26T15:47:59;8.70;69.00
59572;DHT22;59406;45.602;11.904;2023-02-26T15:50:31;8.80;68.80
59572;DHT22;59406;45.602;11.904;2023-02-26T15:53:01;8.80;69.20
59572;DHT22;59406;45.602;11.904;2023-02-26T15:55:35;8.60;68.60
59572;DHT22;59406;45.602;11.904;2023-02-26T15:58:03;8.60;69.70
59572;DHT22;59406;45.602;11.904;2023-02-26T16:00:32;8.40;68.90
59572;DHT22;59406;45.602;11.904;2023-02-26T16:03:00;8.50;69.30
59572;DHT22;59406;45.602;11.904;2023-02-26T16:05:27;8.40;69.30
59572;DHT22;59406;45.602;11.904;2023-02-26T16:07:54;8.50;68.60
59572;DHT22;59406;45.602;11.904;2023-02-26T16:10:32;8.30;68.90
59572;DHT22;59406;45.602;11.904;2023-02-26T16:13:00;8.30;68.50
59572;DHT22;59406;45.602;11.904;2023-02-26T16:15:37;8.20;68.80
59572;DHT22;59406;45.602;11.904;2023-02-26T16:18:07;8.50;69.30
59572;DHT22;59406;45.602;11.904;2023-02-26T16:20:55;8.40;68.90
59572;DHT22;59406;45.602;11.904;2023-02-26T16:26:05;8.20;69.00
59572;DHT22;59406;45.602;11.904;2023-02-26T16:28:38;8.10;69.00
59572;DHT22;59406;45.602;11.904;2023-02-26T16:31:19;8.20;69.20
59572;DHT22;59406;45.602;11.904;2023-02-26T16:33:55;8.10;68.80
59572;DHT22;59406;45.602;11.904;2023-02-26T16:36:25;8.00;68.90
59572;DHT22;59406;45.602;11.904;2023-02-26T16:41:35;8.00;69.20
59572;DHT22;59406;45.602;11.904;2023-02-26T16:44:05;7.80;69.30
59572;DHT22;59406;45.602;11.904;2023-02-26T16:46:49;7.90;69.20
59572;DHT22;59406;45.602;11.904;2023-02-26T16:49:26;7.90;68.90
59572;DHT22;59406;45.602;11.904;2023-02-26T16:51:55;8.00;69.40
59572;DHT22;59406;45.602;11.904;2023-02-26T16:54:28;7.80;69.40
59572;DHT22;59406;45.602;11.904;2023-02-26T16:57:05;7.70;68.90
59572;DHT22;59406;45.602;11.904;2023-02-26T16:59:35;7.80;69.20
59572;DHT22;59406;45.602;11.904;2023-02-26T17:10:50;7.90;69.40
59572;DHT22;59406;45.602;11.904;2023-02-26T17:13:26;8.00;69.40
59572;DHT22;59406;45.602;11.904;2023-02-26T17:15:52;8.00;69.20
59572;DHT22;59406;45.602;11.904;2023-02-26T17:18:20;7.90;69.40
59572;DHT22;59406;45.602;11.904;2023-02-26T17:20:46;8.00;68.80
59572;DHT22;59406;45.602;11.904;2023-02-26T17:23:15;7.80;68.90
59572;DHT22;59406;45.602;11.904;2023-02-26T17:25:43;8.00;69.10
59572;DHT22;59406;45.602;11.904;2023-02-26T17:28:15;7.90;68.80
59572;DHT22;59406;45.602;11.904;2023-02-26T17:30:41;8.00;68.90
59572;DHT22;59406;45.602;11.904;2023-02-26T17:33:10;8.00;69.20
59572;DHT22;59406;45.602;11.904;2023-02-26T17:35:37;8.00;69.30
59572;DHT22;59406;45.602;11.904;2023-02-26T17:38:03;7.90;69.30
59572;DHT22;59406;45.602;11.904;2023-02-26T17:40:33;7.90;69.00
59572;DHT22;59406;45.602;11.904;2023-02-26T17:43:01;7.90;69.10
59572;DHT22;59406;45.602;11.904;2023-02-26T17:45:30;8.00;69.10
59572;DHT22;59406;45.602;11.904;2023-02-26T17:47:57;8.00;68.50
59572;DHT22;59406;45.602;11.904;2023-02-26T17:50:40;7.90;68.80
59572;DHT22;59406;45.602;11.904;2023-02-26T17:53:07;8.00;68.70
59572;DHT22;59406;45.602;11.904;2023-02-26T17:55:36;8.00;68.70
59572;DHT22;59406;45.602;11.904;2023-02-26T17:58:05;7.80;68.50
59572;DHT22;59406;45.602;11.904;2023-02-26T18:00:32;7.90;68.30
59572;DHT22;59406;45.602;11.904;2023-02-26T18:03:04;7.70;68.60
59572;DHT22;59406;45.602;11.904;2023-02-26T18:05:30;7.70;68.00
59572;DHT22;59406;45.602;11.904;2023-02-26T18:08:01;7.70;68.40
59572;DHT22;59406;45.602;11.904;2023-02-26T18:10:26;7.70;67.70
59572;DHT22;59406;45.602;11.904;2023-02-26T18:12:52;7.50;67.80
59572;DHT22;59406;45.602;11.904;2023-02-26T18:15:18;7.60;68.20
59572;DHT22;59406;45.602;11.904;2023-02-26T18:17:44;7.70;68.20
59572;DHT22;59406;45.602;11.904;2023-02-26T18:20:17;7.70;67.40
59572;DHT22;59406;45.602;11.904;2023-02-26T18:22:43;7.70;67.50
59572;DHT22;59406;45.602;11.904;2023-02-26T18:25:12;7.60;68.00
59572;DHT22;59406;45.602;11.904;2023-02-26T18:27:39;7.50;67.60
59572;DHT22;59406;45.602;11.904;2023-02-26T18:30:19;7.60;68.00
59572;DHT22;59406;45.602;11.904;2023-02-26T18:32:45;7.50;67.40
59572;DHT22;59406;45.602;11.904;2023-02-26T18:35:11;7.70;68.00
59572;DHT22;59406;45.602;11.904;2023-02-26T18:37:37;7.60;67.80
59572;DHT22;59406;45.602;11.904;2023-02-26T18:40:03;7.80;67.30
59572;DHT22;59406;45.602;11.904;2023-02-26T18:42:29;7.70;67.70
59572;DHT22;59406;45.602;11.904;2023-02-26T18:44:57;7.70;68.10
59572;DHT22;59406;45.602;11.904;2023-02-26T18:47:23;7.70;67.40
59572;DHT22;59406;45.602;11.904;2023-02-26T18:49:49;7.60;67.50